sensor_id;sensor_type;location;lat;lon;timestamp;pressure;altitude;pressure_sealevel;temperature;humidity
3697;BME280;60662;48.810;8.872;2023-04-05T06:59:53;96944.09;;;2.81;61.52
3697;BME280;60662;48.810;8.872;2023-04-05T07:00:56;96946.41;;;3.05;61.60
3697;BME280;60662;48.810;8.872;2023-04-05T07:01:57;96949.75;;;3.17;60.81
3697;BME280;60662;48.810;8.872;2023-04-05T07:02:59;96953.00;;;3.34;60.45
3697;BME280;60662;48.810;8.872;2023-04-05T07:04:00;96957.81;;;3.64;59.89
3697;BME280;60662;48.810;8.872;2023-04-05T07:05:02;96953.22;;;3.86;58.75
3697;BME280;60662;48.810;8.872;2023-04-05T07:06:06;96950.16;;;4.21;58.32
3697;BME280;60662;48.810;8.872;2023-04-05T07:07:09;96938.06;;;3.61;58.51
3697;BME280;60662;48.810;8.872;2023-04-05T07:08:11;96948.03;;;3.16;60.14
3697;BME280;60662;48.810;8.872;2023-04-05T07:09:12;96944.88;;;2.87;61.51
3697;BME280;60662;48.810;8.872;2023-04-05T07:10:14;96951.78;;;3.66;60.45
3697;BME280;60662;48.810;8.872;2023-04-05T07:11:15;96956.34;;;4.13;58.44
3697;BME280;60662;48.810;8.872;2023-04-05T07:12:17;96946.47;;;3.79;58.69
3697;BME280;60662;48.810;8.872;2023-04-05T07:13:20;96948.84;;;3.94;58.21
3697;BME280;60662;48.810;8.872;2023-04-05T07:14:22;96933.66;;;3.68;58.73
3697;BME280;60662;48.810;8.872;2023-04-05T07:15:23;96946.19;;;3.99;58.22
3697;BME280;60662;48.810;8.872;2023-04-05T07:16:24;96937.72;;;4.48;57.09
3697;BME280;60662;48.810;8.872;2023-04-05T07:17:26;96938.63;;;4.46;57.30
3697;BME280;60662;48.810;8.872;2023-04-05T07:18:28;96938.88;;;4.82;56.51
3697;BME280;60662;48.810;8.872;2023-04-05T07:19:30;96939.72;;;5.32;55.70
3697;BME280;60662;48.810;8.872;2023-04-05T07:20:32;96937.03;;;6.21;54.37
3697;BME280;60662;48.810;8.872;2023-04-05T07:21:33;96935.97;;;6.68;52.36
3697;BME280;60662;48.810;8.872;2023-04-05T07:22:34;96932.69;;;6.22;53.18
3697;BME280;60662;48.810;8.872;2023-04-05T07:23:36;96937.69;;;6.31;53.80
3697;BME280;60662;48.810;8.872;2023-04-05T07:24:37;96945.38;;;5.94;53.58
3697;BME280;60662;48.810;8.872;2023-04-05T07:25:40;96939.81;;;5.71;54.13
3697;BME280;60662;48.810;8.872;2023-04-05T07:26:41;96938.16;;;5.23;54.95
3697;BME280;60662;48.810;8.872;2023-04-05T07:27:43;96947.50;;;5.75;55.39
3697;BME280;60662;48.810;8.872;2023-04-05T07:28:44;96942.03;;;6.29;53.35
3697;BME280;60662;48.810;8.872;2023-04-05T07:29:45;96941.69;;;6.07;53.41
3697;BME280;60662;48.810;8.872;2023-04-05T07:30:48;96947.63;;;6.12;52.01
3697;BME280;60662;48.810;8.872;2023-04-05T07:31:50;96940.75;;;6.49;52.01
3697;BME280;60662;48.810;8.872;2023-04-05T07:32:52;96940.56;;;6.57;50.30
3697;BME280;60662;48.810;8.872;2023-04-05T07:33:54;96947.19;;;6.31;51.15
3697;BME280;60662;48.810;8.872;2023-04-05T07:34:56;96944.59;;;6.68;51.01
3697;BME280;60662;48.810;8.872;2023-04-05T07:35:57;96941.06;;;7.06;50.55
3697;BME280;60662;48.810;8.872;2023-04-05T07:36:59;96940.41;;;6.63;50.16
3697;BME280;60662;48.810;8.872;2023-04-05T07:38:01;96929.16;;;6.62;51.64
3697;BME280;60662;48.810;8.872;2023-04-05T07:39:02;96949.47;;;7.48;50.61
3697;BME280;60662;48.810;8.872;2023-04-05T07:40:06;96942.94;;;7.33;50.49
3697;BME280;60662;48.810;8.872;2023-04-05T07:41:07;96940.66;;;7.84;49.67
3697;BME280;60662;48.810;8.872;2023-04-05T07:42:09;96943.69;;;8.28;48.97
3697;BME280;60662;48.810;8.872;2023-04-05T07:43:10;96937.41;;;8.36;48.19
3697;BME280;60662;48.810;8.872;2023-04-05T07:44:12;96936.78;;;7.99;48.45
3697;BME280;60662;48.810;8.872;2023-04-05T07:45:13;96943.09;;;8.48;47.95
3697;BME280;60662;48.810;8.872;2023-04-05T07:46:15;96937.78;;;8.52;47.98
3697;BME280;60662;48.810;8.872;2023-04-05T07:47:17;96944.50;;;8.30;48.02
3697;BME280;60662;48.810;8.872;2023-04-05T07:48:19;96941.69;;;8.37;47.67
3697;BME280;60662;48.810;8.872;2023-04-05T07:49:25;96950.72;;;8.25;48.59
3697;BME280;60662;48.810;8.872;2023-04-05T07:50:27;96947.81;;;8.91;47.38
3697;BME280;60662;48.810;8.872;2023-04-05T07:51:29;96949.00;;;9.58;45.73
3697;BME280;60662;48.810;8.872;2023-04-05T07:52:31;96941.41;;;9.52;44.78
3697;BME280;60662;48.810;8.872;2023-04-05T07:53:33;96947.72;;;8.10;46.10
3697;BME280;60662;48.810;8.872;2023-04-05T07:54:35;96951.78;;;7.58;49.92
3697;BME280;60662;48.810;8.872;2023-04-05T07:55:39;96946.88;;;8.66;48.78
3697;BME280;60662;48.810;8.872;2023-04-05T07:56:41;96952.72;;;9.25;45.41
3697;BME280;60662;48.810;8.872;2023-04-05T07:57:42;96953.66;;;9.24;48.22
3697;BME280;60662;48.810;8.872;2023-04-05T07:58:44;96947.75;;;8.65;49.62
3697;BME280;60662;48.810;8.872;2023-04-05T07:59:47;96948.94;;;9.09;47.48
3697;BME280;60662;48.810;8.872;2023-04-05T08:00:51;96951.31;;;8.63;46.20
3697;BME280;60662;48.810;8.872;2023-04-05T08:01:53;96953.88;;;8.91;46.70
3697;BME280;60662;48.810;8.872;2023-04-05T08:03:02;96955.97;;;9.57;46.40
3697;BME280;60662;48.810;8.872;2023-04-05T08:04:04;96953.59;;;9.99;44.46
3697;BME280;60662;48.810;8.872;2023-04-05T08:05:06;96949.34;;;9.96;43.89
3697;BME280;60662;48.810;8.872;2023-04-05T08:06:12;96956.56;;;8.61;43.87
3697;BME280;60662;48.810;8.872;2023-04-05T08:07:14;96951.94;;;7.83;47.05
3697;BME280;60662;48.810;8.872;2023-04-05T08:08:16;96957.47;;;8.87;47.59
3697;BME280;60662;48.810;8.872;2023-04-05T08:09:17;96955.13;;;10.04;47.59
3697;BME280;60662;48.810;8.872;2023-04-05T08:10:19;96953.75;;;10.86;44.78
3697;BME280;60662;48.810;8.872;2023-04-05T08:11:20;96960.06;;;9.14;42.96
3697;BME280;60662;48.810;8.872;2023-04-05T08:12:22;96958.47;;;7.35;45.89
3697;BME280;60662;48.810;8.872;2023-04-05T08:13:24;96957.06;;;8.46;45.91
3697;BME280;60662;48.810;8.872;2023-04-05T08:14:25;96961.91;;;9.61;44.84
3697;BME280;60662;48.810;8.872;2023-04-05T08:15:27;96950.50;;;9.65;45.50
3697;BME280;60662;48.810;8.872;2023-04-05T08:16:29;96954.38;;;10.24;44.31
3697;BME280;60662;48.810;8.872;2023-04-05T08:17:30;96959.00;;;10.41;42.03
3697;BME280;60662;48.810;8.872;2023-04-05T08:18:32;96963.41;;;9.43;45.04
3697;BME280;60662;48.810;8.872;2023-04-05T08:19:33;96953.56;;;9.76;45.63
3697;BME280;60662;48.810;8.872;2023-04-05T08:20:37;96956.38;;;9.70;44.85
3697;BME280;60662;48.810;8.872;2023-04-05T08:21:40;96953.88;;;9.43;43.41
3697;BME280;60662;48.810;8.872;2023-04-05T08:22:41;96959.84;;;9.71;43.44
3697;BME280;60662;48.810;8.872;2023-04-05T08:23:43;96945.31;;;10.11;43.64
3697;BME280;60662;48.810;8.872;2023-04-05T08:24:44;96959.69;;;9.75;45.03
3697;BME280;60662;48.810;8.872;2023-04-05T08:25:46;96955.75;;;10.11;42.90
3697;BME280;60662;48.810;8.872;2023-04-05T08:26:48;96955.81;;;10.09;40.69
3697;BME280;60662;48.810;8.872;2023-04-05T08:27:49;96953.25;;;7.98;43.31
3697;BME280;60662;48.810;8.872;2023-04-05T08:28:51;96948.25;;;7.62;43.17
3697;BME280;60662;48.810;8.872;2023-04-05T08:29:52;96954.94;;;7.38;41.87
3697;BME280;60662;48.810;8.872;2023-04-05T08:30:54;96950.81;;;6.61;42.17
3697;BME280;60662;48.810;8.872;2023-04-05T08:31:56;96952.59;;;7.28;42.25
3697;BME280;60662;48.810;8.872;2023-04-05T08:33:01;96966.81;;;7.15;43.82
3697;BME280;60662;48.810;8.872;2023-04-05T08:34:03;96964.28;;;6.40;44.27
3697;BME280;60662;48.810;8.872;2023-04-05T08:35:05;96962.56;;;6.40;46.33
3697;BME280;60662;48.810;8.872;2023-04-05T08:36:08;96959.81;;;6.46;45.10
3697;BME280;60662;48.810;8.872;2023-04-05T08:37:10;96962.41;;;7.17;44.76
3697;BME280;60662;48.810;8.872;2023-04-05T08:38:11;96962.06;;;6.96;44.30
3697;BME280;60662;48.810;8.872;2023-04-05T08:39:13;96956.56;;;7.09;42.67
3697;BME280;60662;48.810;8.872;2023-04-05T08:40:15;96960.91;;;7.41;43.46
3697;BME280;60662;48.810;8.872;2023-04-05T08:41:20;96959.81;;;7.50;43.66
3697;BME280;60662;48.810;8.872;2023-04-05T08:42:45;96952.91;;;7.16;42.52
3697;BME280;60662;48.810;8.872;2023-04-05T08:44:01;96959.53;;;7.28;42.35
3697;BME280;60662;48.810;8.872;2023-04-05T08:45:04;96959.91;;;7.47;41.54
3697;BME280;60662;48.810;8.872;2023-04-05T08:46:13;96958.59;;;6.61;41.69
3697;BME280;60662;48.810;8.872;2023-04-05T08:47:17;96969.31;;;7.18;44.70
3697;BME280;60662;48.810;8.872;2023-04-05T08:48:19;96968.69;;;7.10;44.83
3697;BME280;60662;48.810;8.872;2023-04-05T08:49:21;96961.56;;;8.39;42.86
3697;BME280;60662;48.810;8.872;2023-04-05T08:50:23;96962.84;;;9.35;42.43
3697;BME280;60662;48.810;8.872;2023-04-05T08:51:25;96959.03;;;9.45;40.54
3697;BME280;60662;48.810;8.872;2023-04-05T08:52:28;96955.44;;;9.73;39.93
3697;BME280;60662;48.810;8.872;2023-04-05T08:53:32;96960.13;;;9.12;39.21
3697;BME280;60662;48.810;8.872;2023-04-05T08:54:36;96962.66;;;9.14;41.56
3697;BME280;60662;48.810;8.872;2023-04-05T08:55:38;96957.13;;;9.74;40.15
3697;BME280;60662;48.810;8.872;2023-04-05T08:56:41;96961.44;;;9.99;40.32
3697;BME280;60662;48.810;8.872;2023-04-05T08:57:45;96954.69;;;9.93;39.38
3697;BME280;60662;48.810;8.872;2023-04-05T08:59:10;96964.66;;;10.29;39.35
3697;BME280;60662;48.810;8.872;2023-04-05T09:00:12;96952.72;;;10.45;39.31
3697;BME280;60662;48.810;8.872;2023-04-05T09:01:16;96945.56;;;9.07;38.76
3697;BME280;60662;48.810;8.872;2023-04-05T09:02:18;96946.97;;;8.90;39.28
3697;BME280;60662;48.810;8.872;2023-04-05T09:03:27;96963.00;;;8.78;41.43
3697;BME280;60662;48.810;8.872;2023-04-05T09:04:30;96952.81;;;9.96;39.79
3697;BME280;60662;48.810;8.872;2023-04-05T09:05:36;96957.59;;;10.77;38.37
3697;BME280;60662;48.810;8.872;2023-04-05T09:06:39;96955.97;;;10.28;38.72
3697;BME280;60662;48.810;8.872;2023-04-05T09:07:42;96963.88;;;9.04;38.07
3697;BME280;60662;48.810;8.872;2023-04-05T09:08:45;96957.44;;;7.74;39.20
3697;BME280;60662;48.810;8.872;2023-04-05T09:09:52;96955.94;;;6.99;41.54
3697;BME280;60662;48.810;8.872;2023-04-05T09:10:53;96957.31;;;7.47;43.17
3697;BME280;60662;48.810;8.872;2023-04-05T09:11:55;96956.16;;;7.87;39.95
3697;BME280;60662;48.810;8.872;2023-04-05T09:12:58;96964.31;;;8.91;41.38
3697;BME280;60662;48.810;8.872;2023-04-05T09:14:06;96952.16;;;8.35;39.52
3697;BME280;60662;48.810;8.872;2023-04-05T09:15:08;96965.72;;;7.87;39.35
3697;BME280;60662;48.810;8.872;2023-04-05T09:16:10;96958.13;;;8.39;39.46
3697;BME280;60662;48.810;8.872;2023-04-05T09:17:12;96958.00;;;9.24;39.13
3697;BME280;60662;48.810;8.872;2023-04-05T09:18:14;96959.66;;;9.99;39.78
3697;BME280;60662;48.810;8.872;2023-04-05T09:19:27;96963.53;;;8.61;38.69
3697;BME280;60662;48.810;8.872;2023-04-05T09:20:29;96962.78;;;7.99;39.77
3697;BME280;60662;48.810;8.872;2023-04-05T09:23:01;96970.66;;;6.26;41.15
3697;BME280;60662;48.810;8.872;2023-04-05T09:24:03;96968.66;;;5.98;42.71
3697;BME280;60662;48.810;8.872;2023-04-05T09:25:04;96958.44;;;7.02;41.47
3697;BME280;60662;48.810;8.872;2023-04-05T09:26:20;96963.50;;;6.74;41.62
3697;BME280;60662;48.810;8.872;2023-04-05T09:27:22;96962.66;;;7.08;41.00
3697;BME280;60662;48.810;8.872;2023-04-05T09:28:39;96966.91;;;6.38;41.91
3697;BME280;60662;48.810;8.872;2023-04-05T09:29:43;96965.34;;;6.68;42.17
3697;BME280;60662;48.810;8.872;2023-04-05T09:30:45;96963.97;;;7.87;40.98
3697;BME280;60662;48.810;8.872;2023-04-05T09:31:47;96959.69;;;7.86;40.23
3697;BME280;60662;48.810;8.872;2023-04-05T09:32:50;96950.00;;;7.28;40.83
3697;BME280;60662;48.810;8.872;2023-04-05T09:33:53;96955.94;;;8.25;42.12
3697;BME280;60662;48.810;8.872;2023-04-05T09:34:57;96956.75;;;7.97;41.49
3697;BME280;60662;48.810;8.872;2023-04-05T09:36:01;96953.31;;;8.55;41.49
3697;BME280;60662;48.810;8.872;2023-04-05T09:38:14;96957.78;;;10.50;42.33
3697;BME280;60662;48.810;8.872;2023-04-05T09:39:16;96949.50;;;11.66;39.49
3697;BME280;60662;48.810;8.872;2023-04-05T09:40:22;96947.09;;;12.01;37.35
3697;BME280;60662;48.810;8.872;2023-04-05T09:41:24;96951.97;;;9.47;37.15
3697;BME280;60662;48.810;8.872;2023-04-05T09:42:25;96961.78;;;8.31;39.22
3697;BME280;60662;48.810;8.872;2023-04-05T09:43:37;96954.00;;;6.73;40.87
3697;BME280;60662;48.810;8.872;2023-04-05T09:44:59;96952.94;;;7.14;41.54
3697;BME280;60662;48.810;8.872;2023-04-05T09:46:06;96954.78;;;7.11;41.39
3697;BME280;60662;48.810;8.872;2023-04-05T09:47:17;96950.97;;;8.45;41.03
3697;BME280;60662;48.810;8.872;2023-04-05T09:48:19;96957.38;;;8.63;41.36
3697;BME280;60662;48.810;8.872;2023-04-05T09:49:32;96962.16;;;8.77;39.71
3697;BME280;60662;48.810;8.872;2023-04-05T09:50:34;96955.66;;;9.16;39.11
3697;BME280;60662;48.810;8.872;2023-04-05T09:51:37;96958.59;;;8.23;38.93
3697;BME280;60662;48.810;8.872;2023-04-05T09:52:39;96956.84;;;7.94;40.14
3697;BME280;60662;48.810;8.872;2023-04-05T09:54:03;96957.97;;;8.72;39.96
3697;BME280;60662;48.810;8.872;2023-04-05T09:55:06;96947.09;;;10.33;39.81
3697;BME280;60662;48.810;8.872;2023-04-05T09:56:08;96954.69;;;9.19;37.90
3697;BME280;60662;48.810;8.872;2023-04-05T09:57:11;96948.53;;;10.18;38.63
3697;BME280;60662;48.810;8.872;2023-04-05T09:58:17;96951.66;;;10.94;38.56
3697;BME280;60662;48.810;8.872;2023-04-05T09:59:20;96945.53;;;11.16;37.07
3697;BME280;60662;48.810;8.872;2023-04-05T10:00:22;96949.84;;;10.74;36.36
3697;BME280;60662;48.810;8.872;2023-04-05T10:01:29;96949.91;;;10.04;37.98
3697;BME280;60662;48.810;8.872;2023-04-05T10:02:37;96948.81;;;9.39;38.02
3697;BME280;60662;48.810;8.872;2023-04-05T10:03:47;96939.13;;;9.42;38.92
3697;BME280;60662;48.810;8.872;2023-04-05T10:04:49;96945.69;;;10.90;39.45
3697;BME280;60662;48.810;8.872;2023-04-05T10:05:54;96943.84;;;12.15;37.52
3697;BME280;60662;48.810;8.872;2023-04-05T10:06:56;96935.94;;;10.51;38.31
3697;BME280;60662;48.810;8.872;2023-04-05T10:07:58;96943.16;;;11.71;37.69
3697;BME280;60662;48.810;8.872;2023-04-05T10:09:01;96943.69;;;8.85;37.32
3697;BME280;60662;48.810;8.872;2023-04-05T10:10:03;96930.38;;;7.81;38.66
3697;BME280;60662;48.810;8.872;2023-04-05T10:11:05;96939.03;;;8.93;38.77
3697;BME280;60662;48.810;8.872;2023-04-05T10:12:07;96930.31;;;10.62;37.75
3697;BME280;60662;48.810;8.872;2023-04-05T10:13:09;96927.38;;;11.13;37.82
3697;BME280;60662;48.810;8.872;2023-04-05T10:14:11;96934.47;;;11.71;36.79
3697;BME280;60662;48.810;8.872;2023-04-05T10:15:12;96935.19;;;11.74;37.26
3697;BME280;60662;48.810;8.872;2023-04-05T10:16:18;96922.47;;;12.43;36.16
3697;BME280;60662;48.810;8.872;2023-04-05T10:17:38;96922.13;;;10.49;36.44
3697;BME280;60662;48.810;8.872;2023-04-05T10:18:50;96929.59;;;11.22;37.14
3697;BME280;60662;48.810;8.872;2023-04-05T10:20:23;96934.50;;;11.69;35.15
3697;BME280;60662;48.810;8.872;2023-04-05T10:21:28;96936.06;;;11.13;36.72
3697;BME280;60662;48.810;8.872;2023-04-05T10:24:15;96920.13;;;13.61;35.05
3697;BME280;60662;48.810;8.872;2023-04-05T10:26:39;96917.47;;;14.59;32.86
3697;BME280;60662;48.810;8.872;2023-04-05T10:27:46;96928.94;;;15.04;32.16
3697;BME280;60662;48.810;8.872;2023-04-05T10:28:51;96923.50;;;12.39;32.03
3697;BME280;60662;48.810;8.872;2023-04-05T10:30:05;96923.47;;;12.58;32.97
3697;BME280;60662;48.810;8.872;2023-04-05T10:34:23;96908.84;;;10.55;35.41
3697;BME280;60662;48.810;8.872;2023-04-05T10:36:59;96923.78;;;11.95;35.04
3697;BME280;60662;48.810;8.872;2023-04-05T10:39:16;96918.03;;;13.33;32.91
3697;BME280;60662;48.810;8.872;2023-04-05T10:40:25;96911.44;;;13.26;33.66
3697;BME280;60662;48.810;8.872;2023-04-05T10:41:38;96913.00;;;14.29;33.50
3697;BME280;60662;48.810;8.872;2023-04-05T10:42:42;96919.50;;;13.90;32.39
3697;BME280;60662;48.810;8.872;2023-04-05T10:43:47;96910.00;;;14.83;32.22
3697;BME280;60662;48.810;8.872;2023-04-05T10:44:51;96910.28;;;14.78;31.59
3697;BME280;60662;48.810;8.872;2023-04-05T10:45:56;96911.16;;;14.15;31.27
3697;BME280;60662;48.810;8.872;2023-04-05T10:46:59;96917.66;;;12.70;32.98
3697;BME280;60662;48.810;8.872;2023-04-05T10:49:41;96916.47;;;14.77;33.30
3697;BME280;60662;48.810;8.872;2023-04-05T10:50:46;96914.13;;;16.20;32.53
3697;BME280;60662;48.810;8.872;2023-04-05T10:51:49;55703.94;;;-145.49;100.00
3697;BME280;60662;48.810;8.872;2023-04-05T10:52:51;55703.94;;;-145.49;100.00
3697;BME280;60662;48.810;8.872;2023-04-05T10:53:55;55703.94;;;-145.49;100.00
3697;BME280;60662;48.810;8.872;2023-04-05T10:54:57;55703.94;;;-145.49;100.00
3697;BME280;60662;48.810;8.872;2023-04-05T10:56:00;55703.94;;;-145.49;100.00
3697;BME280;60662;48.810;8.872;2023-04-05T10:57:05;55703.94;;;-145.49;100.00
3697;BME280;60662;48.810;8.872;2023-04-05T10:58:12;55703.94;;;-145.49;100.00
3697;BME280;60662;48.810;8.872;2023-04-05T10:59:14;96904.19;;;13.31;33.33
3697;BME280;60662;48.810;8.872;2023-04-05T11:00:16;96911.47;;;14.09;32.93
3697;BME280;60662;48.810;8.872;2023-04-05T11:01:19;96909.34;;;14.79;31.92
3697;BME280;60662;48.810;8.872;2023-04-05T11:02:21;96907.34;;;16.16;30.94
3697;BME280;60662;48.810;8.872;2023-04-05T11:04:54;55703.94;;;-145.49;100.00
3697;BME280;60662;48.810;8.872;2023-04-05T11:06:17;55703.94;;;-145.49;100.00
3697;BME280;60662;48.810;8.872;2023-04-05T11:07:20;96888.38;;;13.66;31.63
3697;BME280;60662;48.810;8.872;2023-04-05T11:08:22;96894.94;;;15.46;32.00
3697;BME280;60662;48.810;8.872;2023-04-05T11:09:23;96902.19;;;16.00;31.15
3697;BME280;60662;48.810;8.872;2023-04-05T11:10:26;96902.19;;;16.00;31.15
3697;BME280;60662;48.810;8.872;2023-04-05T11:11:37;96898.09;;;14.92;30.28
3697;BME280;60662;48.810;8.872;2023-04-05T11:14:16;96895.41;;;17.45;30.14
3697;BME280;60662;48.810;8.872;2023-04-05T11:16:38;96892.97;;;18.07;28.03
3697;BME280;60662;48.810;8.872;2023-04-05T11:17:39;96900.47;;;16.28;27.65
3697;BME280;60662;48.810;8.872;2023-04-05T11:18:53;96899.28;;;16.74;28.59
3697;BME280;60662;48.810;8.872;2023-04-05T11:20:03;96889.69;;;16.04;30.12
3697;BME280;60662;48.810;8.872;2023-04-05T11:21:06;96890.22;;;16.51;30.95
3697;BME280;60662;48.810;8.872;2023-04-05T11:22:11;96888.63;;;15.48;30.20
3697;BME280;60662;48.810;8.872;2023-04-05T11:23:20;96893.06;;;15.03;31.25
3697;BME280;60662;48.810;8.872;2023-04-05T11:24:22;96887.03;;;15.75;31.59
3697;BME280;60662;48.810;8.872;2023-04-05T11:25:23;96893.31;;;15.29;30.33
3697;BME280;60662;48.810;8.872;2023-04-05T11:26:52;96896.03;;;13.37;32.96
3697;BME280;60662;48.810;8.872;2023-04-05T11:28:00;96888.50;;;13.29;32.91
3697;BME280;60662;48.810;8.872;2023-04-05T11:29:01;96890.63;;;14.21;30.72
3697;BME280;60662;48.810;8.872;2023-04-05T11:30:04;96887.16;;;14.05;32.30
3697;BME280;60662;48.810;8.872;2023-04-05T11:31:19;96884.56;;;13.55;31.37
3697;BME280;60662;48.810;8.872;2023-04-05T11:32:26;96884.94;;;13.81;31.41
3697;BME280;60662;48.810;8.872;2023-04-05T11:35:00;96888.53;;;13.12;34.22
3697;BME280;60662;48.810;8.872;2023-04-05T11:36:05;96885.63;;;14.33;33.78
3697;BME280;60662;48.810;8.872;2023-04-05T11:37:07;96884.09;;;15.36;32.56
3697;BME280;60662;48.810;8.872;2023-04-05T11:38:08;96873.25;;;16.27;31.59
3697;BME280;60662;48.810;8.872;2023-04-05T11:39:28;96886.75;;;16.77;30.50
3697;BME280;60662;48.810;8.872;2023-04-05T11:40:31;96883.44;;;17.01;29.82
3697;BME280;60662;48.810;8.872;2023-04-05T11:41:33;96879.44;;;17.34;29.82
3697;BME280;60662;48.810;8.872;2023-04-05T11:42:34;96873.53;;;17.05;30.18
3697;BME280;60662;48.810;8.872;2023-04-05T11:43:36;96872.06;;;17.13;30.71
3697;BME280;60662;48.810;8.872;2023-04-05T11:44:48;96864.81;;;16.90;30.71
3697;BME280;60662;48.810;8.872;2023-04-05T11:45:53;96869.22;;;17.17;30.53
3697;BME280;60662;48.810;8.872;2023-04-05T11:46:54;96872.06;;;17.78;30.42
3697;BME280;60662;48.810;8.872;2023-04-05T11:48:09;96865.16;;;18.01;30.09
3697;BME280;60662;48.810;8.872;2023-04-05T11:49:12;96869.31;;;18.30;29.46
3697;BME280;60662;48.810;8.872;2023-04-05T11:50:13;96860.91;;;18.11;29.27
3697;BME280;60662;48.810;8.872;2023-04-05T11:51:15;96859.09;;;18.25;28.93
3697;BME280;60662;48.810;8.872;2023-04-05T11:52:18;96863.72;;;17.58;28.72
3697;BME280;60662;48.810;8.872;2023-04-05T11:53:20;96863.06;;;17.93;29.07
3697;BME280;60662;48.810;8.872;2023-04-05T11:54:29;96862.88;;;16.39;29.39
3697;BME280;60662;48.810;8.872;2023-04-05T11:55:31;96855.31;;;16.87;30.09
3697;BME280;60662;48.810;8.872;2023-04-05T11:56:33;96857.16;;;17.77;29.77
3697;BME280;60662;48.810;8.872;2023-04-05T11:57:34;96858.84;;;18.28;29.19
3697;BME280;60662;48.810;8.872;2023-04-05T11:58:38;96857.22;;;18.38;28.78
3697;BME280;60662;48.810;8.872;2023-04-05T11:59:41;96855.09;;;18.43;29.31
3697;BME280;60662;48.810;8.872;2023-04-05T12:00:44;96858.31;;;17.86;28.37
3697;BME280;60662;48.810;8.872;2023-04-05T12:01:46;96856.22;;;17.01;28.13
3697;BME280;60662;48.810;8.872;2023-04-05T12:02:57;96861.06;;;16.67;29.27
3697;BME280;60662;48.810;8.872;2023-04-05T12:03:59;96854.41;;;16.61;29.58
3697;BME280;60662;48.810;8.872;2023-04-05T12:05:01;96844.84;;;17.39;29.44
3697;BME280;60662;48.810;8.872;2023-04-05T12:06:04;96854.66;;;17.37;28.55
3697;BME280;60662;48.810;8.872;2023-04-05T12:07:17;96856.19;;;16.60;28.42
3697;BME280;60662;48.810;8.872;2023-04-05T12:08:20;96854.69;;;16.02;29.19
3697;BME280;60662;48.810;8.872;2023-04-05T12:09:21;96851.78;;;16.33;29.14
3697;BME280;60662;48.810;8.872;2023-04-05T12:10:23;96853.19;;;15.25;30.08
3697;BME280;60662;48.810;8.872;2023-04-05T12:11:27;96843.47;;;14.66;30.55
3697;BME280;60662;48.810;8.872;2023-04-05T12:12:40;96849.47;;;16.14;30.29
3697;BME280;60662;48.810;8.872;2023-04-05T12:13:44;96849.94;;;16.89;30.26
3697;BME280;60662;48.810;8.872;2023-04-05T12:14:45;96857.47;;;17.72;29.86
3697;BME280;60662;48.810;8.872;2023-04-05T12:15:47;96844.16;;;17.87;29.41
3697;BME280;60662;48.810;8.872;2023-04-05T12:16:48;96851.72;;;17.91;28.25
3697;BME280;60662;48.810;8.872;2023-04-05T12:17:51;96844.38;;;15.84;29.54
3697;BME280;60662;48.810;8.872;2023-04-05T12:18:57;96839.31;;;15.38;31.30
3697;BME280;60662;48.810;8.872;2023-04-05T12:19:59;96838.44;;;15.37;31.01
3697;BME280;60662;48.810;8.872;2023-04-05T12:21:06;96845.75;;;16.59;30.55
3697;BME280;60662;48.810;8.872;2023-04-05T12:22:08;96838.94;;;16.69;29.68
3697;BME280;60662;48.810;8.872;2023-04-05T12:23:10;96834.59;;;16.68;29.86
3697;BME280;60662;48.810;8.872;2023-04-05T12:24:11;96833.22;;;16.08;29.71
3697;BME280;60662;48.810;8.872;2023-04-05T12:25:17;96839.56;;;15.47;30.60
3697;BME280;60662;48.810;8.872;2023-04-05T12:26:19;96828.13;;;13.96;30.83
3697;BME280;60662;48.810;8.872;2023-04-05T12:27:22;96818.22;;;12.85;32.50
3697;BME280;60662;48.810;8.872;2023-04-05T12:29:03;96835.31;;;11.26;34.62
3697;BME280;60662;48.810;8.872;2023-04-05T12:30:12;96832.19;;;11.37;34.95
3697;BME280;60662;48.810;8.872;2023-04-05T12:31:37;96832.16;;;12.15;33.73
3697;BME280;60662;48.810;8.872;2023-04-05T12:32:52;96825.63;;;13.45;33.68
3697;BME280;60662;48.810;8.872;2023-04-05T12:33:58;96838.16;;;11.60;34.87
3697;BME280;60662;48.810;8.872;2023-04-05T12:34:59;96828.56;;;13.05;33.83
3697;BME280;60662;48.810;8.872;2023-04-05T12:36:04;96838.94;;;11.81;34.48
3697;BME280;60662;48.810;8.872;2023-04-05T12:37:08;96822.97;;;13.63;33.07
3697;BME280;60662;48.810;8.872;2023-04-05T12:38:12;96826.66;;;14.99;32.93
3697;BME280;60662;48.810;8.872;2023-04-05T12:39:15;96830.22;;;13.74;33.14
3697;BME280;60662;48.810;8.872;2023-04-05T12:40:21;96830.19;;;15.43;32.50
3697;BME280;60662;48.810;8.872;2023-04-05T12:41:30;96837.72;;;16.20;31.34
3697;BME280;60662;48.810;8.872;2023-04-05T12:42:32;96820.50;;;14.70;29.81
3697;BME280;60662;48.810;8.872;2023-04-05T12:43:41;96831.84;;;14.24;32.35
3697;BME280;60662;48.810;8.872;2023-04-05T12:44:43;96829.06;;;13.95;32.61
3697;BME280;60662;48.810;8.872;2023-04-05T12:45:47;96819.72;;;15.13;32.30
3697;BME280;60662;48.810;8.872;2023-04-05T12:47:01;96832.69;;;15.16;31.46
3697;BME280;60662;48.810;8.872;2023-04-05T12:48:07;96820.00;;;15.95;31.62
3697;BME280;60662;48.810;8.872;2023-04-05T12:49:13;96823.91;;;16.57;31.17
3697;BME280;60662;48.810;8.872;2023-04-05T12:50:16;96816.97;;;17.35;30.71
3697;BME280;60662;48.810;8.872;2023-04-05T12:51:18;96824.16;;;17.20;30.18
3697;BME280;60662;48.810;8.872;2023-04-05T12:52:19;96819.28;;;17.01;30.12
3697;BME280;60662;48.810;8.872;2023-04-05T12:53:22;96832.63;;;16.85;31.12
3697;BME280;60662;48.810;8.872;2023-04-05T12:54:26;96819.19;;;16.62;30.42
3697;BME280;60662;48.810;8.872;2023-04-05T12:55:28;96821.81;;;17.54;30.12
3697;BME280;60662;48.810;8.872;2023-04-05T12:56:30;96814.44;;;17.46;28.64
3697;BME280;60662;48.810;8.872;2023-04-05T12:57:31;96819.31;;;16.73;29.27
3697;BME280;60662;48.810;8.872;2023-04-05T12:58:34;96817.47;;;17.01;29.30
3697;BME280;60662;48.810;8.872;2023-04-05T12:59:41;96813.25;;;17.11;28.37
3697;BME280;60662;48.810;8.872;2023-04-05T13:00:42;96817.81;;;17.09;28.49
3697;BME280;60662;48.810;8.872;2023-04-05T13:01:44;96808.81;;;16.19;28.99
3697;BME280;60662;48.810;8.872;2023-04-05T13:03:04;96816.28;;;16.39;29.58
3697;BME280;60662;48.810;8.872;2023-04-05T13:04:05;96815.72;;;17.02;28.54
3697;BME280;60662;48.810;8.872;2023-04-05T13:05:16;96804.75;;;17.21;28.64
3697;BME280;60662;48.810;8.872;2023-04-05T13:06:18;96811.63;;;16.70;28.27